createdAt,value
2019-03-08T00:01:50.962Z,22.50
2019-03-08T00:04:21.510Z,22.50
2019-03-08T00:06:52.283Z,22.50
2019-03-08T00:09:22.872Z,22.50
2019-03-08T00:11:53.260Z,22.50
2019-03-08T00:14:24.099Z,22.50
2019-03-08T00:16:54.894Z,22.50
2019-03-08T00:19:25.795Z,22.40
2019-03-08T00:21:56.399Z,22.50
2019-03-08T00:24:27.031Z,22.40
2019-03-08T00:26:57.922Z,22.40
2019-03-08T00:29:28.731Z,22.40
2019-03-08T00:31:59.263Z,22.40
2019-03-08T00:34:30.114Z,22.40
2019-03-08T00:37:00.827Z,22.40
2019-03-08T00:39:31.344Z,22.40
2019-03-08T00:42:02.129Z,22.40
2019-03-08T00:44:32.991Z,22.40
2019-03-08T00:47:03.653Z,22.40
2019-03-08T00:49:34.196Z,22.40
2019-03-08T00:52:04.927Z,22.40
2019-03-08T00:54:35.597Z,22.40
2019-03-08T00:57:10.653Z,22.40
2019-03-08T00:59:41.431Z,22.40
2019-03-08T01:02:12.052Z,22.40
2019-03-08T01:04:42.536Z,22.40
2019-03-08T01:07:13.199Z,22.40
2019-03-08T01:09:43.885Z,22.40
2019-03-08T01:12:14.644Z,22.40
2019-03-08T01:14:45.660Z,22.40
2019-03-08T01:17:16.333Z,22.40
2019-03-08T01:19:46.923Z,22.40
2019-03-08T01:22:17.630Z,22.40
2019-03-08T01:24:48.175Z,22.40
2019-03-08T01:27:18.936Z,22.40
2019-03-08T01:29:49.552Z,22.40
2019-03-08T01:32:20.205Z,22.40
2019-03-08T01:34:50.941Z,22.40
2019-03-08T01:37:21.678Z,22.40
2019-03-08T01:39:52.299Z,22.40
2019-03-08T01:42:23.044Z,22.40
2019-03-08T01:44:53.621Z,22.40
2019-03-08T01:47:24.071Z,22.40
2019-03-08T01:49:54.445Z,22.40
2019-03-08T01:52:25.266Z,22.40
2019-03-08T01:54:56.073Z,22.40
2019-03-08T01:57:26.557Z,22.40
2019-03-08T01:59:57.153Z,22.40
2019-03-08T02:02:27.762Z,22.40
2019-03-08T02:04:58.345Z,22.40
2019-03-08T02:07:28.987Z,22.40
2019-03-08T02:09:59.561Z,22.40
2019-03-08T02:12:30.269Z,22.40
2019-03-08T02:15:00.846Z,22.40
2019-03-08T02:17:31.532Z,22.30
2019-03-08T02:20:02.233Z,22.40
2019-03-08T02:22:32.894Z,22.40
2019-03-08T02:25:03.460Z,22.30
2019-03-08T02:27:34.010Z,22.40
2019-03-08T02:30:04.923Z,22.40
2019-03-08T02:32:35.838Z,22.50
2019-03-08T02:35:06.767Z,22.40
2019-03-08T02:37:37.564Z,22.40
2019-03-08T02:40:31.464Z,22.40
2019-03-08T02:43:02.642Z,22.40
2019-03-08T02:45:33.262Z,22.40
2019-03-08T02:48:03.828Z,22.40
2019-03-08T02:50:34.423Z,22.40
2019-03-08T02:53:05.222Z,22.40
2019-03-08T02:55:36.132Z,22.40
2019-03-08T02:58:07.030Z,22.40
2019-03-08T03:00:44.658Z,22.40
2019-03-08T03:03:20.712Z,22.40
2019-03-08T03:05:51.478Z,22.30
2019-03-08T03:08:21.993Z,22.30
2019-03-08T03:10:52.507Z,22.30
2019-03-08T03:13:23.265Z,22.30
2019-03-08T03:15:53.829Z,22.30
2019-03-08T03:18:24.702Z,22.30
2019-03-08T03:20:55.361Z,22.30
2019-03-08T03:23:26.071Z,22.30
2019-03-08T03:25:56.745Z,22.30
2019-03-08T03:28:27.439Z,22.30
2019-03-08T03:30:58.311Z,22.30
2019-03-08T03:33:28.782Z,22.30
2019-03-08T03:35:59.562Z,22.30
2019-03-08T03:38:30.392Z,22.30
2019-03-08T03:41:00.866Z,22.30
2019-03-08T03:43:31.730Z,22.30
2019-03-08T03:46:02.516Z,22.30
2019-03-08T03:48:33.148Z,22.30
2019-03-08T03:51:03.777Z,22.30
2019-03-08T03:53:34.392Z,22.30
2019-03-08T03:56:05.305Z,22.30
2019-03-08T03:58:35.799Z,22.30
2019-03-08T04:01:23.887Z,22.30
2019-03-08T04:03:54.423Z,22.30
2019-03-08T04:06:24.980Z,22.30
2019-03-08T04:08:55.491Z,22.30
2019-03-08T04:11:26.049Z,22.30
2019-03-08T04:13:56.680Z,22.30
2019-03-08T04:16:27.382Z,22.30
2019-03-08T04:18:58.939Z,22.30
2019-03-08T04:21:29.644Z,22.30
2019-03-08T04:24:00.286Z,22.30
2019-03-08T04:26:30.868Z,22.30
2019-03-08T04:29:01.477Z,22.30
2019-03-08T04:31:32.554Z,22.30
2019-03-08T04:34:04.053Z,22.30
2019-03-08T04:36:34.694Z,22.30
2019-03-08T04:39:06.154Z,22.30
2019-03-08T04:41:36.645Z,22.30
2019-03-08T04:44:07.311Z,22.30
2019-03-08T04:46:37.916Z,22.30
2019-03-08T04:49:08.612Z,22.30
2019-03-08T04:51:39.041Z,22.20
2019-03-08T04:54:09.684Z,22.30
2019-03-08T04:56:40.394Z,22.20
2019-03-08T04:59:11.206Z,22.20
2019-03-08T05:01:41.935Z,22.20
2019-03-08T05:04:12.495Z,22.20
2019-03-08T05:06:43.064Z,22.20
2019-03-08T05:09:14.158Z,22.20
2019-03-08T05:11:44.745Z,22.30
2019-03-08T05:14:15.333Z,22.20
2019-03-08T05:16:45.915Z,22.30
2019-03-08T05:19:16.476Z,22.30
2019-03-08T05:21:47.166Z,22.30
2019-03-08T05:24:17.732Z,22.30
2019-03-08T05:26:48.264Z,22.30
2019-03-08T05:29:18.683Z,22.30
2019-03-08T05:31:49.269Z,22.30
2019-03-08T05:34:19.806Z,22.30
2019-03-08T05:36:50.496Z,22.20
2019-03-08T05:39:21.104Z,22.30
2019-03-08T05:41:51.707Z,22.30
2019-03-08T05:44:22.171Z,22.20
2019-03-08T05:46:52.738Z,22.20
2019-03-08T05:49:23.259Z,22.20
2019-03-08T05:51:53.859Z,22.20
2019-03-08T05:54:24.245Z,22.20
2019-03-08T05:56:54.928Z,22.20
2019-03-08T05:59:25.521Z,22.20
2019-03-08T06:01:56.255Z,22.20
2019-03-08T06:04:27.031Z,22.20
2019-03-08T06:06:57.494Z,22.20
2019-03-08T06:09:27.952Z,22.20
2019-03-08T06:11:58.966Z,22.20
2019-03-08T06:14:29.752Z,22.20
2019-03-08T06:17:00.557Z,22.20
2019-03-08T06:19:31.539Z,22.20
2019-03-08T06:22:02.197Z,22.20
2019-03-08T06:24:32.711Z,22.30
2019-03-08T06:27:03.230Z,22.30
2019-03-08T06:29:33.967Z,22.40
2019-03-08T06:32:04.830Z,22.40
2019-03-08T06:34:35.427Z,22.40
2019-03-08T06:37:05.973Z,22.40
2019-03-08T06:39:36.452Z,22.40
2019-03-08T06:42:07.535Z,22.40
2019-03-08T06:44:38.047Z,22.40
2019-03-08T06:47:08.475Z,22.40
2019-03-08T06:49:38.933Z,22.40
2019-03-08T06:52:09.663Z,22.40
2019-03-08T06:54:40.502Z,22.40
2019-03-08T06:57:11.071Z,22.40
2019-03-08T06:59:54.963Z,22.40
2019-03-08T07:02:25.940Z,22.40
2019-03-08T07:04:57.042Z,22.40
2019-03-08T07:07:27.570Z,22.40
2019-03-08T07:09:58.215Z,22.40
2019-03-08T07:12:28.843Z,22.40
2019-03-08T07:14:59.607Z,22.40
2019-03-08T07:17:30.441Z,22.40
2019-03-08T07:20:23.115Z,22.40
2019-03-08T07:23:24.880Z,22.40
2019-03-08T07:26:08.315Z,22.40
2019-03-08T07:29:10.056Z,22.30
2019-03-08T07:31:50.588Z,22.30
2019-03-08T07:34:42.917Z,22.30
2019-03-08T07:37:31.243Z,22.30
2019-03-08T07:40:09.307Z,22.30
2019-03-08T07:42:58.541Z,22.30
2019-03-08T07:45:51.597Z,22.30
2019-03-08T07:48:40.924Z,22.40
2019-03-08T07:51:36.718Z,22.30
2019-03-08T07:54:35.628Z,22.30
2019-03-08T07:57:24.025Z,22.30
2019-03-08T08:00:16.856Z,22.30
2019-03-08T08:03:13.031Z,22.30
2019-03-08T08:05:57.983Z,22.30
2019-03-08T08:08:51.401Z,22.30
2019-03-08T08:11:29.395Z,22.30
2019-03-08T08:14:17.911Z,22.30
2019-03-08T08:17:13.457Z,22.30
2019-03-08T08:19:55.160Z,22.30
2019-03-08T08:22:53.712Z,22.30
2019-03-08T08:25:55.580Z,22.30
2019-03-08T08:28:50.075Z,22.30
2019-03-08T08:31:55.053Z,22.30
2019-03-08T08:34:35.972Z,22.30
2019-03-08T08:37:24.223Z,22.30
2019-03-08T08:40:16.719Z,22.30
2019-03-08T08:42:56.941Z,22.30
2019-03-08T08:45:46.834Z,22.30
2019-03-08T08:48:39.515Z,22.30
2019-03-08T08:51:32.011Z,22.30
2019-03-08T08:54:24.867Z,22.30
2019-03-08T08:57:10.029Z,22.30
2019-03-08T09:03:26.568Z,22.30
2019-03-08T09:06:19.238Z,22.30
2019-03-08T09:09:09.088Z,22.30
2019-03-08T09:12:01.668Z,22.30
2019-03-08T09:14:36.959Z,22.30
2019-03-08T09:17:26.845Z,22.30
2019-03-08T09:20:14.996Z,22.30
2019-03-08T09:23:00.627Z,22.30
2019-03-08T09:25:56.404Z,22.30
2019-03-08T09:28:44.524Z,22.40
2019-03-08T09:31:25.228Z,22.40
2019-03-08T09:34:20.865Z,22.50
2019-03-08T09:37:13.378Z,22.50
2019-03-08T09:40:00.434Z,22.60
2019-03-08T09:42:56.551Z,22.70
2019-03-08T09:45:46.374Z,22.70
2019-03-08T09:48:48.234Z,22.80
2019-03-08T09:51:33.150Z,22.90
2019-03-08T09:54:28.838Z,23.00
2019-03-08T09:57:24.412Z,23.00
2019-03-08T10:00:19.689Z,23.00
2019-03-08T10:03:21.151Z,23.10
2019-03-08T10:06:19.837Z,23.20
2019-03-08T10:09:15.156Z,23.10
2019-03-08T10:12:03.763Z,23.10
2019-03-08T10:14:56.945Z,22.90
2019-03-08T10:18:05.509Z,22.90
2019-03-08T10:20:58.695Z,22.90
2019-03-08T10:23:37.020Z,22.90
2019-03-08T10:26:33.245Z,23.00
2019-03-08T10:29:23.542Z,23.00
2019-03-08T10:32:10.107Z,22.90
2019-03-08T10:35:03.086Z,22.90
2019-03-08T10:37:59.349Z,22.80
2019-03-08T10:40:39.158Z,22.70
2019-03-08T10:43:27.028Z,22.70
2019-03-08T10:46:20.581Z,22.60
2019-03-08T10:49:22.246Z,22.60
2019-03-08T10:52:22.076Z,22.60
2019-03-08T10:55:10.196Z,22.60
2019-03-08T10:58:15.002Z,22.60
2019-03-08T11:00:59.727Z,22.60
2019-03-08T11:03:44.110Z,22.60
2019-03-08T11:06:23.073Z,22.60
2019-03-08T11:09:13.182Z,22.60
2019-03-08T11:11:53.193Z,22.50
2019-03-08T11:14:48.769Z,22.50
2019-03-08T11:17:30.730Z,22.50
2019-03-08T11:20:35.233Z,22.50
2019-03-08T11:23:31.494Z,22.50
2019-03-08T11:26:20.328Z,22.50
2019-03-08T11:29:30.665Z,22.50
2019-03-08T11:32:23.249Z,22.50
2019-03-08T11:35:01.470Z,22.50
2019-03-08T11:37:51.786Z,22.50
2019-03-08T11:40:48.656Z,22.50
2019-03-08T11:43:31.196Z,22.50
2019-03-08T11:46:26.135Z,22.50
2019-03-08T11:49:24.798Z,22.50
2019-03-08T11:52:08.583Z,22.40
2019-03-08T11:54:57.413Z,22.40
2019-03-08T11:57:59.523Z,22.40
2019-03-08T12:00:37.910Z,22.40
2019-03-08T12:03:21.557Z,22.40
2019-03-08T12:06:01.045Z,22.50
2019-03-08T12:08:45.784Z,22.50
2019-03-08T12:11:39.016Z,22.50
2019-03-08T12:14:27.969Z,22.50
2019-03-08T12:17:35.007Z,22.50
2019-03-08T12:20:26.351Z,22.50
2019-03-08T12:23:34.084Z,22.40
2019-03-08T12:26:18.386Z,22.40
2019-03-08T12:29:07.944Z,22.30
2019-03-08T12:32:05.559Z,22.30
2019-03-08T12:34:52.336Z,22.30
2019-03-08T12:37:41.901Z,22.30
2019-03-08T12:40:27.321Z,22.30
2019-03-08T12:43:18.954Z,22.30
2019-03-08T12:46:09.967Z,22.30
2019-03-08T12:48:50.327Z,22.30
2019-03-08T12:51:30.963Z,22.40
2019-03-08T12:54:20.509Z,22.40
2019-03-08T12:57:11.368Z,22.40
2019-03-08T13:00:01.090Z,22.40
2019-03-08T13:02:53.299Z,22.50
2019-03-08T13:05:43.637Z,22.50
2019-03-08T13:08:35.664Z,22.50
2019-03-08T13:11:07.455Z,22.60
2019-03-08T13:13:38.062Z,22.90
2019-03-08T13:16:09.776Z,23.00
2019-03-08T13:18:42.384Z,23.20
2019-03-08T13:21:14.005Z,23.20
2019-03-08T13:23:45.596Z,23.10
2019-03-08T13:26:17.337Z,23.10
2019-03-08T13:28:48.885Z,23.10
2019-03-08T13:31:20.706Z,23.00
2019-03-08T13:33:52.360Z,23.00
2019-03-08T13:36:23.880Z,23.00
2019-03-08T13:38:55.341Z,23.00
2019-03-08T13:41:26.564Z,23.10
2019-03-08T13:43:57.329Z,23.10
2019-03-08T13:46:28.848Z,23.10
2019-03-08T13:49:00.205Z,23.00
2019-03-08T13:51:32.064Z,23.00
2019-03-08T13:54:03.615Z,23.00
2019-03-08T13:56:35.541Z,23.00
2019-03-08T13:59:06.818Z,22.90
2019-03-08T14:01:38.445Z,22.90
2019-03-08T14:04:09.440Z,22.90
2019-03-08T14:06:40.107Z,22.90
2019-03-08T14:09:12.231Z,23.00
2019-03-08T14:11:42.871Z,23.00
2019-03-08T14:14:13.622Z,22.90
2019-03-08T14:16:45.314Z,22.90
2019-03-08T14:19:16.135Z,22.90
2019-03-08T14:21:47.893Z,22.90
2019-03-08T14:24:18.986Z,22.90
2019-03-08T14:26:49.756Z,22.90
2019-03-08T14:29:22.320Z,22.90
2019-03-08T14:32:15.009Z,23.00
2019-03-08T14:34:45.718Z,23.00
2019-03-08T14:37:19.933Z,22.90
2019-03-08T14:39:51.246Z,22.90
2019-03-08T14:42:40.487Z,22.90
2019-03-08T14:45:40.597Z,22.90
2019-03-08T14:48:14.781Z,22.90
2019-03-08T14:50:45.719Z,22.80
2019-03-08T14:53:17.104Z,22.80
2019-03-08T14:55:48.041Z,22.70
2019-03-08T14:58:19.101Z,22.70
2019-03-08T15:00:50.430Z,22.60
2019-03-08T15:03:23.788Z,22.60
2019-03-08T15:05:55.915Z,22.60
2019-03-08T15:08:27.203Z,22.60
2019-03-08T15:10:58.308Z,22.60
2019-03-08T15:13:29.484Z,22.70
2019-03-08T15:16:02.229Z,22.70
2019-03-08T15:18:34.808Z,22.70
2019-03-08T15:21:05.759Z,22.70
2019-03-08T15:23:39.222Z,22.70
2019-03-08T15:26:10.156Z,22.70
2019-03-08T15:28:40.853Z,22.70
2019-03-08T15:31:12.093Z,22.70
2019-03-08T15:33:46.485Z,22.70
2019-03-08T15:36:20.771Z,22.70
2019-03-08T15:38:58.227Z,22.70
2019-03-08T15:41:25.021Z,22.70
2019-03-08T15:43:56.941Z,22.70
2019-03-08T15:46:27.587Z,22.70
2019-03-08T15:48:59.915Z,22.70
2019-03-08T15:51:33.363Z,22.70
2019-03-08T15:54:04.137Z,22.70
2019-03-08T15:56:34.574Z,22.70
2019-03-08T15:59:05.395Z,22.70
2019-03-08T16:01:36.296Z,22.70
2019-03-08T16:04:08.237Z,22.60
2019-03-08T16:06:39.905Z,22.60
2019-03-08T16:09:11.895Z,22.60
2019-03-08T16:11:42.331Z,22.60
2019-03-08T16:14:13.163Z,22.60
2019-03-08T16:16:43.845Z,22.60
2019-03-08T16:19:14.369Z,22.60
2019-03-08T16:21:46.798Z,22.70
2019-03-08T16:24:19.143Z,22.60
2019-03-08T16:26:49.763Z,22.60
2019-03-08T16:29:20.508Z,22.60
2019-03-08T16:32:12.766Z,22.60
2019-03-08T16:34:43.524Z,22.60
2019-03-08T16:37:31.698Z,22.60
2019-03-08T16:40:11.937Z,22.60
2019-03-08T16:43:10.964Z,22.60
2019-03-08T16:46:03.515Z,22.60
2019-03-08T16:48:44.064Z,22.60
2019-03-08T16:51:22.808Z,22.60
2019-03-08T16:54:08.301Z,22.60
2019-03-08T16:56:57.105Z,22.60
2019-03-08T16:59:45.628Z,22.60
2019-03-08T17:02:26.391Z,22.60
2019-03-08T17:05:16.150Z,22.60
2019-03-08T17:07:58.760Z,22.60
2019-03-08T17:10:37.593Z,22.60
2019-03-08T17:13:45.256Z,22.60
2019-03-08T17:16:32.142Z,22.50
2019-03-08T17:19:27.478Z,22.50
2019-03-08T17:22:16.915Z,22.50
2019-03-08T17:25:09.381Z,22.50
2019-03-08T17:27:49.944Z,22.50
2019-03-08T17:30:39.951Z,22.50
2019-03-08T17:33:28.496Z,22.50
2019-03-08T17:36:30.538Z,22.50
2019-03-08T17:39:23.577Z,22.50
2019-03-08T17:42:18.990Z,22.50
2019-03-08T17:45:07.202Z,22.50
2019-03-08T17:47:52.896Z,22.50
2019-03-08T17:50:43.176Z,22.50
2019-03-08T17:53:48.433Z,22.50
2019-03-08T17:56:53.387Z,22.50
2019-03-08T18:00:01.345Z,22.50
2019-03-08T18:03:08.944Z,22.50
2019-03-08T18:05:51.764Z,22.50
2019-03-08T18:08:41.542Z,22.50
2019-03-08T18:11:37.477Z,22.50
2019-03-08T18:14:29.982Z,22.50
2019-03-08T18:17:19.875Z,22.60
2019-03-08T18:20:12.553Z,22.60
2019-03-08T18:23:01.867Z,22.50
2019-03-08T18:25:51.588Z,22.50
2019-03-08T18:28:47.571Z,22.50
2019-03-08T18:31:43.535Z,22.50
2019-03-08T18:34:42.124Z,22.50
2019-03-08T18:37:34.957Z,22.50
2019-03-08T18:40:20.483Z,22.50
2019-03-08T18:43:13.319Z,22.50
2019-03-08T18:45:54.712Z,22.50
2019-03-08T18:48:40.435Z,22.50
2019-03-08T18:51:36.076Z,22.50
2019-03-08T18:54:15.202Z,22.40
2019-03-08T18:56:58.331Z,22.50
2019-03-08T18:59:56.758Z,22.50
2019-03-08T19:02:36.597Z,22.50
2019-03-08T19:05:22.368Z,22.50
2019-03-08T19:08:17.874Z,22.50
2019-03-08T19:11:08.089Z,22.70
2019-03-08T19:13:56.681Z,22.70
2019-03-08T19:16:40.228Z,22.80
2019-03-08T19:19:24.686Z,22.90
2019-03-08T19:22:08.009Z,23.00
2019-03-08T19:24:51.643Z,23.00
2019-03-08T19:27:37.432Z,23.10
2019-03-08T19:30:29.721Z,23.20
2019-03-08T19:33:06.666Z,23.20
2019-03-08T19:35:59.612Z,23.20
2019-03-08T19:38:55.380Z,23.20
2019-03-08T19:41:56.791Z,23.10
2019-03-08T19:44:45.498Z,23.10
2019-03-08T19:47:44.437Z,23.10
2019-03-08T19:50:32.340Z,23.00
2019-03-08T19:53:30.241Z,23.00
2019-03-08T19:56:16.334Z,23.00
2019-03-08T19:59:15.091Z,23.00
2019-03-08T20:02:04.658Z,23.00
2019-03-08T20:04:57.061Z,22.90
2019-03-08T20:07:39.090Z,22.90
2019-03-08T20:10:29.058Z,22.90
2019-03-08T20:13:06.641Z,22.90
2019-03-08T20:15:48.465Z,22.90
2019-03-08T20:18:36.790Z,22.90
2019-03-08T20:21:30.084Z,22.90
2019-03-08T20:24:12.966Z,22.80
2019-03-08T20:27:08.295Z,22.80
2019-03-08T20:30:02.034Z,22.80
2019-03-08T20:33:01.397Z,22.70
2019-03-08T20:35:45.955Z,22.70
2019-03-08T20:38:35.515Z,22.70
2019-03-08T20:41:13.020Z,22.70
2019-03-08T20:44:05.508Z,22.60
2019-03-08T20:46:43.317Z,22.60
2019-03-08T20:49:16.499Z,22.60
2019-03-08T20:51:47.149Z,22.60
2019-03-08T20:54:18.235Z,22.50
2019-03-08T20:56:49.745Z,22.50
2019-03-08T20:59:21.104Z,22.50
2019-03-08T21:01:52.565Z,22.50
2019-03-08T21:04:24.309Z,22.40
2019-03-08T21:06:54.772Z,22.40
2019-03-08T21:09:26.878Z,22.40
2019-03-08T21:11:58.570Z,22.40
2019-03-08T21:14:31.388Z,22.40
2019-03-08T21:17:01.863Z,22.40
2019-03-08T21:19:32.362Z,22.40
2019-03-08T21:22:03.136Z,22.40
2019-03-08T21:24:33.826Z,22.40
2019-03-08T21:27:04.375Z,22.40
2019-03-08T21:29:35.455Z,22.40
2019-03-08T21:32:07.536Z,22.40
2019-03-08T21:34:38.341Z,22.40
2019-03-08T21:37:08.962Z,22.30
2019-03-08T21:39:39.966Z,22.30
2019-03-08T21:42:10.731Z,22.30
2019-03-08T21:44:41.296Z,22.30
2019-03-08T21:47:12.077Z,22.30
2019-03-08T21:49:42.936Z,22.40
2019-03-08T21:52:13.687Z,22.40
2019-03-08T21:54:47.827Z,22.30
2019-03-08T21:57:20.744Z,22.40
2019-03-08T21:59:51.544Z,22.40
2019-03-08T22:02:22.362Z,22.30
2019-03-08T22:04:59.577Z,22.30
2019-03-08T22:07:30.168Z,22.30
2019-03-08T22:10:09.784Z,22.30
2019-03-08T22:12:40.534Z,22.30
2019-03-08T22:15:11.980Z,22.30
2019-03-08T22:17:42.479Z,22.30
2019-03-08T22:20:13.236Z,22.30
2019-03-08T22:22:43.796Z,22.30
2019-03-08T22:25:14.548Z,22.30
2019-03-08T22:27:45.183Z,22.30
2019-03-08T22:30:16.790Z,22.20
2019-03-08T22:32:47.619Z,22.20
2019-03-08T22:35:18.281Z,22.20
2019-03-08T22:37:48.997Z,22.20
2019-03-08T22:40:20.286Z,22.20
2019-03-08T22:42:51.291Z,22.30
2019-03-08T22:45:22.056Z,22.30
2019-03-08T22:48:08.242Z,22.30
2019-03-08T22:50:38.958Z,22.20
2019-03-08T22:53:09.656Z,22.20
2019-03-08T22:55:40.708Z,22.20
2019-03-08T22:58:11.360Z,22.20
2019-03-08T23:01:15.599Z,22.20
2019-03-08T23:03:46.233Z,22.20
2019-03-08T23:06:16.956Z,22.20
2019-03-08T23:08:49.161Z,22.20
2019-03-08T23:11:20.891Z,22.20
2019-03-08T23:13:53.381Z,22.20
2019-03-08T23:16:24.330Z,22.20
2019-03-08T23:18:55.020Z,22.20
2019-03-08T23:21:25.567Z,22.20
2019-03-08T23:23:56.237Z,22.20
2019-03-08T23:26:26.915Z,22.30
2019-03-08T23:29:08.240Z,22.20
2019-03-08T23:31:47.267Z,22.30
2019-03-08T23:34:18.123Z,22.30
2019-03-08T23:36:49.151Z,22.30
2019-03-08T23:39:20.831Z,22.30
2019-03-08T23:41:51.946Z,22.30
2019-03-08T23:44:22.606Z,22.30
2019-03-08T23:46:53.393Z,22.30
2019-03-08T23:49:24.155Z,22.30
2019-03-08T23:51:56.958Z,22.20
2019-03-08T23:54:29.664Z,22.20
2019-03-08T23:57:02.152Z,22.20
2019-03-08T23:59:36.545Z,22.20
